Middletown, California
Current Conditions -  °F | °C
As of 12:53 PM on Wednesday 26 Nov 2014 (Local Time) from KSTS Reporting Station
Scattered Clouds Scattered Clouds  
Wind Chill: 64°   Ceiling: Unl
Heat Index: 64°   Visibility: 10mi
Dew Point: 47°   Wind: 5mph
Humidity: 54%   Direction: 160°SSE
Pressure: 30.23"   Gusts: NA
Location:  38.75°N, 122.62°W
Report Text: KSTS 262053Z 16004KT 10SM SCT200 18/08 A3023 RMK AO2 SLP230 T01780083 58026
Loading
Personal Weather Stations






























Interactive Weather Map New forecast layout! Learn more

10-Day Weather Forecast

Advertisements
Track Severe Weather on mobile